Meteo Giornale » Osservazioni meteo Italia » Torino-Caselle

ore: 19:50 - Osservazioni Meteo Torino-Caselle
Lat. 45° 13' N Lon. 7° 39' E Alt. 301 metri s.l.m.

sereno

29 °C

Sereno

Temp. 24 Ore

20 °C

32 °C

Nord

9.3 Km/h

Dew point 17 °C

Umidità 48 %

Visibilità  10 Km

Il sole sorge alle ore 06:50

Il sole tramonta alle ore 20:09

Data e Ora Cielo e Fenomeni T °C DP °C Um. % Pres. hPa Vis. km Vento km/h
Oggi h: 19:50 sereno Sereno 29 17 48 1013 10 N 9.3
Oggi h: 19:20 sereno Sereno 30 16 42 1013 10 N 11.1
Oggi h: 18:50 sereno Sereno 31 16 40 1013 10 N/NE 9.3
Oggi h: 17:50 sereno Sereno 32 15 35 1013 10 NE 7.4
Oggi h: 17:20 sereno Sereno 32 15 35 1013 10 N 5.5
Oggi h: 16:50 sereno Sereno 32 15 35 1014 10 NO 7.4
Oggi h: 16:20 sereno Sereno 32 16 38 1014 10 N 5.5
Oggi h: 09:20 poco_nuvoloso Poco Nuvoloso 24 17 64 1016 10 N 5.5
Oggi h: 08:50 poco_nuvoloso Poco Nuvoloso 24 17 64 1016 10 O/NO 7.4
Oggi h: 08:20 sereno Sereno 22 16 68 1016 10 NO 7.4
Oggi h: 07:50 poco_nuvoloso Poco Nuvoloso 22 16 68 1016 10 O/NO 11.1
Oggi h: 07:20 sereno Sereno 21 16 73 1016 10 O/NO 7.4
Oggi h: 06:50 sereno Sereno 20 17 82 1015 10 N 7.4
Oggi h: 06:20 sereno Sereno 20 17 82 1015 10 N 5.5
Oggi h: 05:50 sereno Sereno 21 17 77 1015 10 N 5.5
Oggi h: 05:20 sereno Sereno 20 17 82 1015 10 N 1.8
Oggi h: 04:50 sereno Sereno 20 17 82 1016 10 N 3.7
Oggi h: 04:20 sereno Sereno 22 16 68 1015 10 N 3.7
Oggi h: 03:50 sereno Sereno 21 17 77 1015 10 N 1.8
Oggi h: 03:20 sereno Sereno 21 17 77 1016 10 O 7.4
Oggi h: 02:50 sereno Sereno 21 17 77 1016 10 N 1.8
Oggi h: 02:20 poco_nuvoloso Poco Nuvoloso 21 18 82 1016 10 N 5.5
Oggi h: 01:50 molto_nuvoloso Molto Nuvoloso 24 17 64 1016 10 N 3.7
Oggi h: 01:20 nuvoloso Nuvoloso 24 16 60 1016 10 NO 11.1
Oggi h: 00:50 poco_nuvoloso Poco Nuvoloso 23 17 68 1016 10 N/NO 9.3
Oggi h: 00:20 poco_nuvoloso Poco Nuvoloso 24 16 60 1016 10 NO 13
Ieri h: 23:50 sereno Sereno 24 17 64 1016 10 N/NO 11.1
Ieri h: 23:20 poco_nuvoloso Poco Nuvoloso 25 17 61 1016 10 N/NO 7.4
Ieri h: 22:50 molto_nuvoloso Molto Nuvoloso 26 18 61 1016 10 NO 7.4
Ieri h: 22:20 molto_nuvoloso Molto Nuvoloso 25 18 65 1016 10 N/NO 7.4
Ieri h: 21:50 sereno Sereno 25 17 61 1015 10 N/NO 9.3
Ieri h: 21:20 sereno Sereno 26 17 57 1015 10 N/NO 7.4
Ieri h: 20:50 sereno Sereno 26 17 57 1015 10 NE 7.4